Time;durP1;ratioP1;P1;durP2;ratioP2;P2;SDS_P1;SDS_P2;PMS_P1;PMS_P2;Temp;Humidity;BMP_temperature;BMP_pressure;BME280_temperature;BME280_humidity;BME280_pressure;Samples;Min_cycle;Max_cycle;Signal;HPM_P1;HPM_P2
2023/06/21 00:01:51;;;;;;;5.72;4.65;;;24.70;99.90;;;;;;7387803;19;20158;-78
2023/06/21 00:04:17;;;;;;;6.70;4.38;;;24.80;99.90;;;;;;7388310;19;21415;-79
2023/06/21 00:06:49;;;;;;;6.15;4.70;;;24.80;99.90;;;;;;7388451;19;20158;-79
2023/06/21 00:09:15;;;;;;;6.03;4.90;;;24.80;99.90;;;;;;7390335;19;20139;-78
2023/06/21 00:11:41;;;;;;;5.57;4.60;;;24.60;99.90;;;;;;7388816;19;20146;-78
2023/06/21 00:14:07;;;;;;;5.82;4.75;;;24.60;99.90;;;;;;7384823;19;20149;-78
2023/06/21 00:16:33;;;;;;;6.70;4.55;;;24.20;99.90;;;;;;7388566;19;20146;-78
2023/06/21 00:18:59;;;;;;;6.47;4.65;;;24.20;99.90;;;;;;7387964;19;20510;-79
2023/06/21 00:21:24;;;;;;;7.25;4.40;;;24.20;99.90;;;;;;7389340;19;20198;-78
2023/06/21 00:23:50;;;;;;;4.68;4.10;;;24.00;99.90;;;;;;7387604;19;20831;-79
2023/06/21 00:26:16;;;;;;;9.77;4.57;;;23.90;99.90;;;;;;7386457;19;20153;-79
2023/06/21 00:28:42;;;;;;;5.85;5.13;;;24.00;99.90;;;;;;7388449;19;20152;-79
2023/06/21 00:31:10;;;;;;;6.32;4.90;;;24.10;99.90;;;;;;7387271;19;20139;-79
2023/06/21 00:33:37;;;;;;;6.20;4.70;;;24.30;99.90;;;;;;7390269;19;20571;-78
2023/06/21 00:36:03;;;;;;;5.93;4.88;;;24.30;99.90;;;;;;7385260;19;20130;-79
2023/06/21 00:38:34;;;;;;;6.03;4.70;;;24.40;99.90;;;;;;7390747;19;20135;-79
2023/06/21 00:41:02;;;;;;;6.90;4.93;;;24.30;99.90;;;;;;7388985;19;20131;-79
2023/06/21 00:43:28;;;;;;;7.93;4.97;;;24.30;99.90;;;;;;7385976;19;20142;-79
2023/06/21 00:45:54;;;;;;;6.30;4.82;;;24.30;99.90;;;;;;7384935;19;20153;-78
2023/06/21 00:48:20;;;;;;;5.20;4.70;;;24.40;99.90;;;;;;7385730;19;20150;-79
2023/06/21 00:50:45;;;;;;;6.25;4.57;;;24.40;99.90;;;;;;7389260;19;20258;-79
2023/06/21 00:53:11;;;;;;;7.43;5.07;;;24.40;99.90;;;;;;7385497;19;20168;-79
2023/06/21 00:55:40;;;;;;;5.88;4.93;;;24.50;99.90;;;;;;7389295;19;20218;-78
2023/06/21 00:58:08;;;;;;;5.90;4.63;;;24.40;99.90;;;;;;7388789;19;20163;-80
2023/06/21 01:00:35;;;;;;;5.88;4.47;;;24.40;99.90;;;;;;7388350;19;20134;-79
2023/06/21 01:03:00;;;;;;;5.03;4.53;;;24.40;99.90;;;;;;7381546;19;20177;-80
2023/06/21 01:05:30;;;;;;;7.80;4.60;;;24.40;99.90;;;;;;7387358;19;20491;-78
2023/06/21 01:08:20;;;;;;;5.93;5.03;;;24.40;99.90;;;;;;7387108;19;20149;-80
2023/06/21 01:11:08;;;;;;;5.65;4.82;;;24.30;99.90;;;;;;7385250;19;20134;-80
2023/06/21 01:14:10;;;;;;;7.85;4.90;;;24.30;99.90;;;;;;7391245;19;20134;-80
2023/06/21 01:16:42;;;;;;;5.35;4.82;;;24.20;99.90;;;;;;7385383;19;20134;-79
2023/06/21 01:19:24;;;;;;;6.72;4.78;;;24.20;99.90;;;;;;7383769;19;20177;-80
2023/06/21 01:21:52;;;;;;;9.00;5.35;;;24.20;99.90;;;;;;7382846;19;20148;-79
2023/06/21 01:24:28;;;;;;;5.88;4.93;;;24.20;99.90;;;;;;7386874;19;20146;-79
2023/06/21 01:27:06;;;;;;;7.18;5.35;;;24.10;99.90;;;;;;7387431;19;20157;-80
2023/06/21 01:29:39;;;;;;;8.13;4.60;;;24.10;99.90;;;;;;7385326;19;20130;-79
2023/06/21 01:32:10;;;;;;;5.47;4.70;;;24.10;99.90;;;;;;7378152;19;20586;-79
2023/06/21 01:34:37;;;;;;;7.00;5.22;;;24.10;99.90;;;;;;7387249;19;20139;-79
2023/06/21 01:37:05;;;;;;;6.13;4.47;;;24.20;99.90;;;;;;7389399;19;20139;-78
2023/06/21 01:39:31;;;;;;;6.07;4.88;;;24.10;99.90;;;;;;7383898;19;20700;-79
2023/06/21 01:41:58;;;;;;;5.38;4.80;;;24.10;99.90;;;;;;7386345;19;20684;-79
2023/06/21 01:44:25;;;;;;;7.18;4.97;;;24.10;99.90;;;;;;7379789;19;20542;-78
2023/06/21 01:46:53;;;;;;;5.75;4.68;;;24.10;99.90;;;;;;7380988;19;20542;-79
2023/06/21 01:49:20;;;;;;;8.70;5.20;;;24.10;99.90;;;;;;7386550;19;20833;-78
2023/06/21 01:51:46;;;;;;;9.70;4.88;;;24.10;99.90;;;;;;7384930;19;20494;-78
2023/06/21 01:54:15;;;;;;;6.90;5.15;;;24.10;99.90;;;;;;7387817;19;20134;-78
2023/06/21 01:56:42;;;;;;;5.75;4.63;;;24.00;99.90;;;;;;7387176;19;20141;-78
2023/06/21 01:59:08;;;;;;;7.40;5.15;;;24.00;99.90;;;;;;7391897;19;20146;-78
2023/06/21 02:01:37;;;;;;;9.65;5.13;;;24.10;99.90;;;;;;7392128;19;20134;-79
2023/06/21 02:04:24;;;;;;;7.63;4.63;;;24.10;99.90;;;;;;7392918;19;20202;-79
2023/06/21 02:06:52;;;;;;;6.20;4.97;;;24.00;99.90;;;;;;7393649;19;20235;-79
2023/06/21 02:09:19;;;;;;;7.07;5.28;;;23.80;99.90;;;;;;7392185;19;20131;-78
2023/06/21 02:11:46;;;;;;;5.47;4.88;;;23.70;99.90;;;;;;7392374;19;20766;-79
2023/06/21 02:14:12;;;;;;;8.05;5.47;;;23.60;99.90;;;;;;7390096;19;20645;-78
2023/06/21 02:16:38;;;;;;;8.65;5.00;;;23.70;99.90;;;;;;7390938;19;20162;-79
2023/06/21 02:19:05;;;;;;;6.30;5.53;;;23.70;99.90;;;;;;7391731;19;20142;-78
2023/06/21 02:21:30;;;;;;;9.35;5.43;;;23.70;99.90;;;;;;7392868;19;20147;-78
2023/06/21 02:23:56;;;;;;;5.63;4.70;;;23.70;99.90;;;;;;7390898;19;20583;-81
2023/06/21 02:26:24;;;;;;;7.70;4.90;;;23.80;99.90;;;;;;7391302;19;20150;-79
2023/06/21 02:28:51;;;;;;;5.97;4.53;;;23.80;99.90;;;;;;7393038;19;20226;-78
2023/06/21 02:31:17;;;;;;;8.07;5.03;;;23.70;99.90;;;;;;7391860;19;20222;-78
2023/06/21 02:33:48;;;;;;;6.38;4.85;;;23.60;99.90;;;;;;7390837;19;20218;-79
2023/06/21 02:36:15;;;;;;;10.55;5.38;;;23.40;99.90;;;;;;7391793;19;20543;-77
2023/06/21 02:38:41;;;;;;;6.40;5.07;;;23.20;99.90;;;;;;7393657;19;20127;-78
2023/06/21 02:41:07;;;;;;;6.55;5.05;;;23.40;99.90;;;;;;7394387;19;20145;-79
2023/06/21 02:43:33;;;;;;;5.53;4.85;;;23.50;99.90;;;;;;7393846;19;20583;-78
2023/06/21 02:46:00;;;;;;;7.10;5.32;;;23.60;99.90;;;;;;7385697;19;20174;-79
2023/06/21 02:48:26;;;;;;;7.55;5.18;;;23.60;99.90;;;;;;7396993;19;20146;-77
2023/06/21 02:50:52;;;;;;;6.18;5.20;;;23.60;99.90;;;;;;7399604;19;20130;-78
2023/06/21 02:53:17;;;;;;;5.85;4.88;;;23.40;99.90;;;;;;7397936;19;20140;-78
2023/06/21 02:55:43;;;;;;;7.80;4.70;;;23.30;99.90;;;;;;7396455;19;20139;-78
2023/06/21 02:58:09;;;;;;;6.93;5.55;;;23.50;99.90;;;;;;7396644;19;20479;-78
2023/06/21 03:00:35;;;;;;;5.50;4.65;;;23.50;99.90;;;;;;7397989;19;20142;-78
2023/06/21 03:03:02;;;;;;;6.15;4.60;;;23.60;99.90;;;;;;7395463;19;20158;-78
2023/06/21 03:05:33;;;;;;;7.40;5.63;;;23.60;99.90;;;;;;7399457;19;20190;-78
2023/06/21 03:08:00;;;;;;;6.65;5.43;;;23.50;99.90;;;;;;7402500;19;20150;-77
2023/06/21 03:10:26;;;;;;;6.05;5.13;;;23.60;99.90;;;;;;7392707;19;20135;-79
2023/06/21 03:12:52;;;;;;;6.90;4.80;;;23.60;99.90;;;;;;7391503;19;20681;-79
2023/06/21 03:15:18;;;;;;;5.75;4.82;;;23.60;99.90;;;;;;7391762;19;20157;-79
2023/06/21 03:17:44;;;;;;;5.57;4.70;;;23.60;99.90;;;;;;7391872;19;20134;-79
2023/06/21 03:20:14;;;;;;;7.65;5.32;;;23.50;99.90;;;;;;7389971;19;20149;-77
2023/06/21 03:22:43;;;;;;;5.82;5.10;;;23.50;99.90;;;;;;7387679;19;20141;-79
2023/06/21 03:25:10;;;;;;;6.85;5.00;;;23.50;99.90;;;;;;7389638;19;20218;-78
2023/06/21 03:27:36;;;;;;;7.72;5.10;;;23.60;99.90;;;;;;7390424;19;20156;-79
2023/06/21 03:30:06;;;;;;;8.50;5.70;;;23.60;99.90;;;;;;7389930;19;20134;-80
2023/06/21 03:32:32;;;;;;;8.55;5.68;;;23.60;99.90;;;;;;7389439;19;20146;-79
2023/06/21 03:34:58;;;;;;;6.82;5.60;;;23.50;99.90;;;;;;7390487;19;20753;-79
2023/06/21 03:37:26;;;;;;;8.15;5.70;;;23.60;99.90;;;;;;7387376;19;20152;-77
2023/06/21 03:39:53;;;;;;;6.20;5.38;;;23.60;99.90;;;;;;7390611;19;20507;-79
2023/06/21 03:42:19;;;;;;;6.50;5.15;;;23.40;99.90;;;;;;7390697;19;20582;-78
2023/06/21 03:44:45;;;;;;;5.68;5.07;;;23.40;99.90;;;;;;7388685;19;20126;-79
2023/06/21 03:47:11;;;;;;;11.18;6.40;;;23.50;99.90;;;;;;7383206;19;20213;-79
2023/06/21 03:49:38;;;;;;;11.55;6.65;;;23.60;99.90;;;;;;7387710;19;20138;-79
2023/06/21 03:52:05;;;;;;;9.95;6.90;;;23.60;99.90;;;;;;7388313;19;20489;-78
2023/06/21 03:54:30;;;;;;;13.55;7.20;;;23.60;99.90;;;;;;7389779;19;20770;-78
2023/06/21 03:56:56;;;;;;;8.43;6.28;;;23.60;99.90;;;;;;7387407;19;20138;-78
2023/06/21 03:59:22;;;;;;;9.23;5.82;;;23.60;99.90;;;;;;7389717;19;20131;-77
2023/06/21 04:01:52;;;;;;;11.20;5.65;;;23.30;99.90;;;;;;7387531;19;20230;-77
2023/06/21 04:04:18;;;;;;;8.88;5.40;;;23.20;99.90;;;;;;7384708;19;20166;-76
2023/06/21 04:06:43;;;;;;;7.90;5.57;;;23.30;99.90;;;;;;7387105;19;20142;-75
2023/06/21 04:09:09;;;;;;;9.60;5.82;;;23.20;99.90;;;;;;7388140;19;20142;-77
2023/06/21 04:11:35;;;;;;;6.35;5.28;;;23.20;99.90;;;;;;7389221;19;20162;-77
2023/06/21 04:14:01;;;;;;;10.18;5.30;;;23.10;99.90;;;;;;7384831;19;20126;-77
2023/06/21 04:16:26;;;;;;;6.47;5.25;;;23.00;99.90;;;;;;7390075;19;20680;-77
2023/06/21 04:18:52;;;;;;;7.78;6.30;;;22.80;99.90;;;;;;7384032;19;20151;-76
2023/06/21 04:21:18;;;;;;;7.95;5.22;;;22.50;99.90;;;;;;7389409;19;20155;-76
2023/06/21 04:23:44;;;;;;;8.82;5.55;;;22.40;99.90;;;;;;7385526;19;20131;-76
2023/06/21 04:26:12;;;;;;;5.95;4.85;;;22.40;99.90;;;;;;7389256;19;20138;-77
2023/06/21 04:28:40;;;;;;;5.70;4.75;;;22.50;99.90;;;;;;7388255;19;20618;-77
2023/06/21 04:31:06;;;;;;;6.40;5.40;;;22.60;99.90;;;;;;7386777;19;20161;-77
2023/06/21 04:33:32;;;;;;;12.68;6.68;;;22.70;99.90;;;;;;7385125;19;20143;-77
2023/06/21 04:35:57;;;;;;;6.50;5.03;;;22.40;99.90;;;;;;7389627;19;20613;-78
2023/06/21 04:38:23;;;;;;;5.90;4.70;;;22.40;99.90;;;;;;7386972;19;20147;-77
2023/06/21 04:40:52;;;;;;;8.35;4.88;;;22.30;99.90;;;;;;7388600;19;20144;-77
2023/06/21 04:43:18;;;;;;;7.88;5.28;;;22.50;99.90;;;;;;7386938;19;20135;-77
2023/06/21 04:45:48;;;;;;;7.43;4.78;;;22.10;99.90;;;;;;7387406;19;20173;-77
2023/06/21 04:48:14;;;;;;;5.00;4.40;;;22.10;99.90;;;;;;7386462;19;20151;-76
2023/06/21 04:50:45;;;;;;;6.55;4.97;;;22.40;99.90;;;;;;7385652;19;20134;-76
2023/06/21 04:53:14;;;;;;;7.65;5.07;;;22.50;99.90;;;;;;7385445;19;20590;-78
2023/06/21 04:55:46;;;;;;;6.85;4.78;;;22.70;99.90;;;;;;7388516;19;20157;-77
2023/06/21 04:58:12;;;;;;;5.85;4.63;;;22.70;99.90;;;;;;7383517;19;20161;-77
2023/06/21 05:00:38;;;;;;;6.82;4.28;;;22.30;99.90;;;;;;7387864;19;20135;-78
2023/06/21 05:03:04;;;;;;;7.72;4.60;;;22.30;99.90;;;;;;7382415;19;20139;-78
2023/06/21 05:05:30;;;;;;;6.43;5.00;;;22.60;99.90;;;;;;7386607;19;20142;-76
2023/06/21 05:07:56;;;;;;;7.75;5.55;;;22.70;99.90;;;;;;7387069;19;20200;-77
2023/06/21 05:10:22;;;;;;;7.65;5.00;;;22.80;99.90;;;;;;7387241;19;20154;-77
2023/06/21 05:12:47;;;;;;;6.35;4.55;;;22.80;99.90;;;;;;7384651;19;20161;-76
2023/06/21 05:15:13;;;;;;;6.07;5.18;;;22.50;99.90;;;;;;7386761;19;20126;-77
2023/06/21 05:17:39;;;;;;;6.75;5.20;;;22.70;99.90;;;;;;7383498;19;20150;-77
2023/06/21 05:20:05;;;;;;;6.45;4.97;;;23.00;99.90;;;;;;7384340;19;20138;-79
2023/06/21 05:22:32;;;;;;;6.63;5.03;;;22.80;99.90;;;;;;7384816;19;20151;-77
2023/06/21 05:24:57;;;;;;;6.25;4.68;;;22.70;99.90;;;;;;7387342;19;20202;-78
2023/06/21 05:27:23;;;;;;;6.97;5.40;;;22.90;99.90;;;;;;7384876;19;20154;-77
2023/06/21 05:29:49;;;;;;;6.93;5.32;;;23.00;99.90;;;;;;7384598;19;20134;-79
2023/06/21 05:32:15;;;;;;;8.27;5.93;;;23.00;99.90;;;;;;7382237;19;20196;-78
2023/06/21 05:34:41;;;;;;;9.07;6.00;;;23.10;99.90;;;;;;7383730;19;20223;-77
2023/06/21 05:37:06;;;;;;;7.15;5.65;;;23.20;99.90;;;;;;7380777;19;20123;-79
2023/06/21 05:39:32;;;;;;;8.10;5.72;;;23.20;99.90;;;;;;7385700;19;20764;-77
2023/06/21 05:41:58;;;;;;;8.45;5.70;;;23.10;99.90;;;;;;7381654;19;20161;-80
2023/06/21 05:44:24;;;;;;;8.07;5.30;;;23.10;99.90;;;;;;7385865;19;20238;-77
2023/06/21 05:46:49;;;;;;;7.30;5.15;;;23.20;99.90;;;;;;7381289;19;20177;-78
2023/06/21 05:49:17;;;;;;;6.20;5.07;;;23.30;99.90;;;;;;7386700;19;20134;-77
2023/06/21 05:51:42;;;;;;;6.53;4.40;;;23.30;99.90;;;;;;7384211;19;20178;-78
2023/06/21 05:54:08;;;;;;;7.13;5.03;;;23.30;99.90;;;;;;7379853;19;20143;-78
2023/06/21 05:56:37;;;;;;;8.82;5.00;;;23.50;99.90;;;;;;7377154;19;20127;-77
2023/06/21 05:59:04;;;;;;;5.35;4.43;;;23.60;99.90;;;;;;7384310;19;20141;-78
2023/06/21 06:01:30;;;;;;;7.82;4.50;;;23.70;99.90;;;;;;7382693;19;20141;-76
2023/06/21 06:03:55;;;;;;;7.43;4.85;;;23.90;99.90;;;;;;7384686;19;20629;-78
2023/06/21 06:06:21;;;;;;;4.88;4.35;;;24.00;99.90;;;;;;7381216;19;20202;-78
2023/06/21 06:08:47;;;;;;;7.35;4.60;;;24.00;99.90;;;;;;7381684;19;20170;-79
2023/06/21 06:11:13;;;;;;;6.85;5.30;;;24.00;99.90;;;;;;7382856;19;20161;-78
2023/06/21 06:13:39;;;;;;;5.65;4.80;;;24.00;99.90;;;;;;7377093;19;20458;-79
2023/06/21 06:16:05;;;;;;;5.85;4.82;;;24.00;99.90;;;;;;7380187;19;20162;-79
2023/06/21 06:18:31;;;;;;;5.63;4.72;;;24.10;99.90;;;;;;7380934;19;20860;-78
2023/06/21 06:20:56;;;;;;;7.00;4.72;;;24.10;99.90;;;;;;7381388;19;20143;-79
2023/06/21 06:23:22;;;;;;;6.97;4.85;;;24.00;99.90;;;;;;7383985;19;20135;-78
2023/06/21 06:25:48;;;;;;;7.20;4.93;;;24.00;99.90;;;;;;7380990;19;20131;-77
2023/06/21 06:28:14;;;;;;;6.95;5.10;;;24.00;99.90;;;;;;7384307;19;20135;-77
2023/06/21 06:30:39;;;;;;;9.82;5.47;;;24.10;99.90;;;;;;7383382;19;20158;-78
2023/06/21 06:33:05;;;;;;;8.02;5.97;;;24.10;99.90;;;;;;7385280;19;20464;-76
2023/06/21 06:35:32;;;;;;;6.15;4.78;;;24.10;99.90;;;;;;7382066;19;20160;-76
2023/06/21 06:37:57;;;;;;;6.30;4.40;;;24.10;99.90;;;;;;7386806;19;21974;-77
2023/06/21 06:40:23;;;;;;;7.90;4.72;;;24.30;99.90;;;;;;7384258;19;20171;-78
2023/06/21 06:42:49;;;;;;;6.88;4.78;;;25.30;99.90;;;;;;7384325;19;20230;-78
2023/06/21 06:45:15;;;;;;;7.57;4.60;;;26.30;99.90;;;;;;7389130;19;20147;-81
2023/06/21 06:47:41;;;;;;;5.90;4.50;;;26.80;99.90;;;;;;7389750;19;20127;-79
2023/06/21 06:50:07;;;;;;;7.40;5.07;;;27.30;99.90;;;;;;7390325;19;20151;-79
2023/06/21 06:52:33;;;;;;;6.93;5.13;;;28.30;99.90;;;;;;7390035;19;20139;-78
2023/06/21 06:54:58;;;;;;;5.72;4.95;;;29.10;99.90;;;;;;7389632;19;20244;-77
2023/06/21 06:57:24;;;;;;;5.50;4.88;;;28.80;99.90;;;;;;7389616;19;20146;-77
2023/06/21 06:59:50;;;;;;;7.05;5.22;;;28.10;99.90;;;;;;7390231;19;20598;-76
2023/06/21 07:02:16;;;;;;;7.72;5.15;;;28.00;99.90;;;;;;7391656;19;20190;-77
2023/06/21 07:04:42;;;;;;;5.90;5.22;;;28.00;99.90;;;;;;7388692;19;20155;-78
2023/06/21 07:07:07;;;;;;;7.45;4.90;;;28.80;99.90;;;;;;7389249;19;20150;-79
2023/06/21 07:09:33;;;;;;;8.55;6.47;;;29.20;99.90;;;;;;7387102;19;20532;-77
2023/06/21 07:12:01;;;;;;;7.53;5.15;;;29.10;99.90;;;;;;7390250;19;20127;-76
2023/06/21 07:14:27;;;;;;;8.45;5.70;;;28.70;99.90;;;;;;7387807;19;20146;-77
2023/06/21 07:16:53;;;;;;;7.95;5.20;;;28.30;99.90;;;;;;7389540;19;20143;-77
2023/06/21 07:19:19;;;;;;;6.50;5.00;;;28.10;99.90;;;;;;7391492;19;20179;-76
2023/06/21 07:21:44;;;;;;;7.40;5.07;;;28.60;99.90;;;;;;7387825;19;20153;-78
2023/06/21 07:24:11;;;;;;;5.65;5.05;;;29.20;99.90;;;;;;7389208;19;20146;-78
2023/06/21 07:26:41;;;;;;;6.63;5.43;;;29.50;99.90;;;;;;7391411;19;20151;-78
2023/06/21 07:29:06;;;;;;;6.45;5.15;;;29.80;99.90;;;;;;7390549;19;20138;-77
2023/06/21 07:31:32;;;;;;;7.40;5.32;;;29.90;99.90;;;;;;7390257;19;20481;-78
2023/06/21 07:33:58;;;;;;;6.35;4.97;;;30.10;99.90;;;;;;7389817;19;20898;-78
2023/06/21 07:36:25;;;;;;;7.25;5.22;;;30.00;99.90;;;;;;7391132;19;20145;-76
2023/06/21 07:38:51;;;;;;;9.02;5.47;;;29.50;99.90;;;;;;7390528;19;20143;-77
2023/06/21 07:41:17;;;;;;;5.45;4.75;;;28.80;99.90;;;;;;7390889;19;21121;-77
2023/06/21 07:43:43;;;;;;;9.05;5.60;;;28.00;99.90;;;;;;7388009;19;20141;-77
2023/06/21 07:46:09;;;;;;;6.50;5.35;;;27.50;99.90;;;;;;7386678;19;20170;-78
2023/06/21 07:48:34;;;;;;;5.20;4.50;;;27.10;99.90;;;;;;7390369;19;20138;-78
2023/06/21 07:51:01;;;;;;;7.28;4.85;;;26.80;99.90;;;;;;7390199;19;20563;-77
2023/06/21 07:53:27;;;;;;;39.00;32.47;;;26.60;99.90;;;;;;7390341;19;20603;-77
2023/06/21 07:55:53;;;;;;;7.43;5.10;;;26.20;99.90;;;;;;7390703;19;20167;-76
2023/06/21 07:58:18;;;;;;;9.65;7.80;;;26.10;99.90;;;;;;7388493;19;20476;-74
2023/06/21 08:00:50;;;;;;;8.40;5.70;;;25.90;99.90;;;;;;7389209;19;20655;-75
2023/06/21 08:03:16;;;;;;;6.13;4.85;;;25.90;99.90;;;;;;7385801;19;20158;-75
2023/06/21 08:05:41;;;;;;;7.75;4.47;;;26.10;99.90;;;;;;7386418;19;20170;-77
2023/06/21 08:08:08;;;;;;;7.28;4.20;;;25.90;99.90;;;;;;7385184;19;20704;-78
2023/06/21 08:10:34;;;;;;;7.00;4.93;;;26.00;99.90;;;;;;7387492;19;20518;-79
2023/06/21 08:12:59;;;;;;;6.53;4.60;;;26.00;99.90;;;;;;7388423;19;20230;-79
2023/06/21 08:15:25;;;;;;;8.52;4.28;;;25.90;99.90;;;;;;7387388;19;20139;-77
2023/06/21 08:17:51;;;;;;;5.43;4.10;;;25.90;99.90;;;;;;7385658;19;20143;-78
2023/06/21 08:20:17;;;;;;;4.53;3.78;;;25.90;99.90;;;;;;7385594;19;20161;-78
2023/06/21 08:22:47;;;;;;;6.85;4.35;;;25.90;99.90;;;;;;7385150;19;20151;-77
2023/06/21 08:25:16;;;;;;;7.82;4.70;;;25.90;99.90;;;;;;7387425;19;20142;-77
2023/06/21 08:27:41;;;;;;;7.20;4.00;;;25.80;99.90;;;;;;7383553;19;20284;-76
2023/06/21 08:30:08;;;;;;;8.20;5.60;;;25.60;99.90;;;;;;7386928;19;20480;-76
2023/06/21 08:32:33;;;;;;;4.05;3.65;;;25.50;99.90;;;;;;7388115;19;20131;-76
2023/06/21 08:35:02;;;;;;;6.80;4.38;;;25.50;99.90;;;;;;7388379;19;20238;-77
2023/06/21 08:37:28;;;;;;;7.40;5.15;;;25.50;99.90;;;;;;7386301;19;20142;-78
2023/06/21 08:39:56;;;;;;;5.07;4.00;;;25.50;99.90;;;;;;7389569;19;20623;-77
2023/06/21 08:42:26;;;;;;;9.02;4.30;;;25.50;99.90;;;;;;7384746;19;20176;-76
2023/06/21 08:44:53;;;;;;;9.38;6.10;;;25.30;99.90;;;;;;7384821;19;20174;-79
2023/06/21 08:47:21;;;;;;;6.80;5.00;;;25.20;99.90;;;;;;7381449;19;20185;-77
2023/06/21 08:49:49;;;;;;;10.88;6.88;;;25.30;99.90;;;;;;7390086;19;20146;-79
2023/06/21 08:52:21;;;;;;;7.80;5.85;;;25.30;99.90;;;;;;7386350;19;20150;-78
2023/06/21 08:54:59;;;;;;;8.18;6.13;;;25.30;99.90;;;;;;7385794;19;20135;-79
2023/06/21 08:57:29;;;;;;;8.68;6.70;;;25.30;99.90;;;;;;7389430;19;20139;-78
2023/06/21 09:00:04;;;;;;;11.50;8.55;;;25.30;99.90;;;;;;7387014;19;20151;-78
2023/06/21 09:02:48;;;;;;;15.52;11.82;;;25.20;99.90;;;;;;7383118;19;20134;-78
2023/06/21 09:05:31;;;;;;;9.38;5.70;;;25.10;99.90;;;;;;7383771;19;20617;-77
2023/06/21 09:07:58;;;;;;;9.10;4.50;;;25.20;99.90;;;;;;7385745;19;20150;-76
2023/06/21 09:10:27;;;;;;;6.75;4.82;;;25.20;99.90;;;;;;7388029;19;20623;-75
2023/06/21 09:12:55;;;;;;;4.38;3.55;;;25.00;99.90;;;;;;7384956;19;20166;-76
2023/06/21 09:15:22;;;;;;;4.97;3.67;;;24.90;99.90;;;;;;7385151;19;20143;-75
2023/06/21 09:17:49;;;;;;;6.10;4.00;;;24.90;99.90;;;;;;7385690;19;20174;-74
2023/06/21 09:20:17;;;;;;;6.38;4.30;;;24.70;99.90;;;;;;7385626;19;20162;-74
2023/06/21 09:22:46;;;;;;;10.23;4.93;;;24.30;99.90;;;;;;7382564;19;20163;-74
2023/06/21 09:25:13;;;;;;;5.57;4.20;;;24.40;99.90;;;;;;7385034;19;20919;-74
2023/06/21 09:27:39;;;;;;;6.85;4.25;;;24.40;99.90;;;;;;7387600;19;20152;-73
2023/06/21 09:30:06;;;;;;;6.53;4.18;;;24.30;99.90;;;;;;7386775;19;20131;-73
2023/06/21 09:32:32;;;;;;;11.05;4.80;;;24.20;99.90;;;;;;7388430;19;20238;-73
2023/06/21 09:34:59;;;;;;;6.55;4.38;;;24.20;99.90;;;;;;7385390;19;20162;-72
2023/06/21 09:37:32;;;;;;;7.00;4.75;;;24.10;99.90;;;;;;7387373;19;20171;-73
2023/06/21 09:39:58;;;;;;;8.48;5.15;;;24.00;99.90;;;;;;7386294;19;20161;-74
2023/06/21 09:42:26;;;;;;;6.75;4.70;;;23.90;99.90;;;;;;7385261;19;20139;-73
2023/06/21 09:44:53;;;;;;;7.00;4.97;;;23.70;99.90;;;;;;7386928;19;20709;-74
2023/06/21 09:47:19;;;;;;;7.75;4.20;;;23.60;99.90;;;;;;7382827;19;20222;-73
2023/06/21 09:49:46;;;;;;;9.02;6.30;;;23.50;99.90;;;;;;7386968;19;20597;-76
2023/06/21 09:52:14;;;;;;;14.18;9.55;;;23.30;99.90;;;;;;7384110;19;20139;-75
2023/06/21 09:54:43;;;;;;;10.00;5.97;;;23.30;99.90;;;;;;7386432;19;20154;-74
2023/06/21 09:57:10;;;;;;;9.93;6.60;;;23.30;99.90;;;;;;7383374;19;20150;-74
2023/06/21 09:59:37;;;;;;;12.13;8.00;;;23.30;99.90;;;;;;7386169;19;20150;-72
2023/06/21 10:02:07;;;;;;;10.68;7.93;;;23.30;99.90;;;;;;7383982;19;20158;-74
2023/06/21 10:04:41;;;;;;;10.32;6.80;;;23.30;99.90;;;;;;7385476;19;20151;-75
2023/06/21 10:07:08;;;;;;;8.82;5.57;;;23.30;99.90;;;;;;7386306;19;20138;-73
2023/06/21 10:09:40;;;;;;;14.80;10.45;;;23.30;99.90;;;;;;7384524;19;20142;-73
2023/06/21 10:12:08;;;;;;;8.70;6.75;;;23.30;99.90;;;;;;7387440;19;20135;-74
2023/06/21 10:14:34;;;;;;;9.38;6.35;;;23.40;99.90;;;;;;7386307;19;20139;-73
2023/06/21 10:17:00;;;;;;;8.82;6.15;;;23.40;99.90;;;;;;7383225;19;21187;-74
2023/06/21 10:19:31;;;;;;;9.75;6.18;;;23.40;99.90;;;;;;7388814;19;20135;-74
2023/06/21 10:22:27;;;;;;;13.13;6.50;;;23.50;99.90;;;;;;7390162;19;20147;-74
2023/06/21 10:24:55;;;;;;;9.90;6.25;;;23.50;99.90;;;;;;7390658;19;20142;-73
2023/06/21 10:27:22;;;;;;;9.63;5.72;;;23.50;99.90;;;;;;7389678;19;20157;-74
2023/06/21 10:29:57;;;;;;;10.70;6.95;;;23.50;99.90;;;;;;7390445;19;20215;-74
2023/06/21 10:32:24;;;;;;;13.85;7.97;;;23.50;99.90;;;;;;7390795;19;20130;-74
2023/06/21 10:35:16;;;;;;;17.90;9.65;;;23.50;99.90;;;;;;7391924;19;20142;-75
2023/06/21 10:38:03;;;;;;;12.43;10.25;;;23.50;99.90;;;;;;7388293;19;20177;-75
2023/06/21 10:40:29;;;;;;;11.57;7.60;;;23.50;99.90;;;;;;7389978;19;20123;-74
2023/06/21 10:42:57;;;;;;;11.80;8.90;;;23.50;99.90;;;;;;7387551;19;20577;-73
2023/06/21 10:45:28;;;;;;;10.95;7.18;;;23.60;99.90;;;;;;7389345;19;20679;-75
2023/06/21 10:47:55;;;;;;;13.52;7.95;;;23.70;99.90;;;;;;7388072;19;20158;-74
2023/06/21 10:50:22;;;;;;;11.82;7.93;;;23.70;99.90;;;;;;7390999;19;20321;-76
2023/06/21 10:52:57;;;;;;;10.52;7.28;;;23.80;99.90;;;;;;7388353;19;20138;-73
2023/06/21 10:55:23;;;;;;;15.77;7.60;;;23.80;99.90;;;;;;7392581;19;20134;-73
2023/06/21 10:57:55;;;;;;;9.23;8.10;;;24.00;99.90;;;;;;7388349;19;20149;-75
2023/06/21 11:00:28;;;;;;;10.98;8.07;;;24.00;99.90;;;;;;7389609;19;20179;-75
2023/06/21 11:02:54;;;;;;;11.70;8.25;;;24.10;99.90;;;;;;7390990;19;20630;-74
2023/06/21 11:05:24;;;;;;;13.38;9.68;;;24.20;99.90;;;;;;7390073;19;20218;-74
2023/06/21 11:08:11;;;;;;;11.73;8.07;;;24.20;99.90;;;;;;7389943;19;20146;-74
2023/06/21 11:10:49;;;;;;;13.18;8.40;;;24.30;99.90;;;;;;7392347;19;20146;-73
2023/06/21 11:13:17;;;;;;;9.82;6.10;;;24.50;99.90;;;;;;7389894;19;20142;-75
2023/06/21 11:15:46;;;;;;;8.23;7.00;;;24.50;99.90;;;;;;7391886;19;20169;-74
2023/06/21 11:18:20;;;;;;;9.13;6.78;;;24.50;99.90;;;;;;7390782;19;20579;-73
2023/06/21 11:20:51;;;;;;;5.90;5.25;;;24.60;99.90;;;;;;7392582;19;20501;-74
2023/06/21 11:23:25;;;;;;;6.38;5.10;;;24.60;99.90;;;;;;7392710;19;20485;-74
2023/06/21 11:25:50;;;;;;;5.53;4.68;;;24.70;99.90;;;;;;7391603;19;21253;-74
2023/06/21 11:28:19;;;;;;;9.50;6.20;;;24.70;99.90;;;;;;7396650;19;20154;-74
2023/06/21 11:31:22;;;;;;;8.48;6.15;;;24.70;99.90;;;;;;7399016;19;20155;-76
2023/06/21 11:33:54;;;;;;;7.90;5.50;;;25.00;99.90;;;;;;7395280;19;20269;-75
2023/06/21 11:36:25;;;;;;;7.13;5.20;;;25.00;99.90;;;;;;7393877;19;20229;-75
2023/06/21 11:39:11;;;;;;;6.68;5.68;;;25.10;99.90;;;;;;7396025;19;20142;-75
2023/06/21 11:41:43;;;;;;;8.82;6.45;;;25.30;99.90;;;;;;7396963;19;20162;-75
2023/06/21 11:44:11;;;;;;;7.03;5.57;;;25.40;99.90;;;;;;7395260;19;20196;-76
2023/06/21 11:46:45;;;;;;;7.18;5.47;;;25.50;99.90;;;;;;7391481;19;20614;-75
2023/06/21 11:49:13;;;;;;;6.78;6.00;;;25.60;99.90;;;;;;7394768;19;20135;-74
2023/06/21 11:52:00;;;;;;;7.78;6.97;;;25.50;99.90;;;;;;7392758;19;20150;-74
2023/06/21 11:54:31;;;;;;;9.02;5.50;;;25.80;99.90;;;;;;7389991;19;20138;-75
2023/06/21 11:56:56;;;;;;;8.02;5.72;;;26.00;99.90;;;;;;7387503;19;20493;-75
2023/06/21 11:59:25;;;;;;;7.25;5.45;;;25.80;99.90;;;;;;7388386;19;20145;-76
2023/06/21 12:01:53;;;;;;;7.93;5.88;;;25.90;99.90;;;;;;7387634;19;20139;-76
2023/06/21 12:04:26;;;;;;;9.13;6.13;;;26.00;99.90;;;;;;7386675;19;20134;-76
2023/06/21 12:06:55;;;;;;;7.35;5.43;;;26.10;99.90;;;;;;7389333;19;20472;-75
2023/06/21 12:09:24;;;;;;;6.47;5.60;;;26.00;99.90;;;;;;7388838;19;20165;-75
2023/06/21 12:11:50;;;;;;;6.47;5.72;;;26.00;99.90;;;;;;7387486;19;20142;-76
2023/06/21 12:14:18;;;;;;;7.72;5.32;;;26.10;99.90;;;;;;7385225;19;20154;-75
2023/06/21 12:16:44;;;;;;;6.40;5.15;;;26.30;99.90;;;;;;7388233;19;20139;-73
2023/06/21 12:19:10;;;;;;;6.50;5.25;;;26.50;99.90;;;;;;7388925;19;20246;-74
2023/06/21 12:21:38;;;;;;;8.63;5.95;;;26.40;99.90;;;;;;7387625;19;20146;-73
2023/06/21 12:24:05;;;;;;;11.75;5.43;;;26.30;99.90;;;;;;7388879;19;20131;-75
2023/06/21 12:26:31;;;;;;;8.05;5.70;;;26.30;99.90;;;;;;7387080;19;20447;-77
2023/06/21 12:28:57;;;;;;;7.60;5.93;;;26.10;99.90;;;;;;7387254;19;20196;-75
2023/06/21 12:31:27;;;;;;;8.48;5.35;;;26.00;99.90;;;;;;7389405;19;20130;-76
2023/06/21 12:33:56;;;;;;;8.60;5.78;;;25.90;99.90;;;;;;7385358;19;20161;-77
2023/06/21 12:36:25;;;;;;;9.20;6.20;;;25.70;99.90;;;;;;7387120;19;20138;-77
2023/06/21 12:38:54;;;;;;;7.53;6.63;;;25.70;99.90;;;;;;7387674;19;20496;-76
2023/06/21 12:41:21;;;;;;;7.30;6.43;;;25.80;99.90;;;;;;7386121;19;20127;-77
2023/06/21 12:43:49;;;;;;;7.00;5.80;;;25.70;99.90;;;;;;7384422;19;20507;-75
2023/06/21 12:46:15;;;;;;;7.18;5.72;;;25.40;99.90;;;;;;7386405;19;20179;-77
2023/06/21 12:48:49;;;;;;;10.35;6.20;;;25.30;99.90;;;;;;7387133;19;20151;-77
2023/06/21 12:51:28;;;;;;;7.28;5.40;;;25.40;99.90;;;;;;7385351;19;20141;-77